sensor_id;sensor_type;location;lat;lon;timestamp;pressure;altitude;pressure_sealevel;temperature;humidity
69574;BME280;62840;52.366;5.980;2022-09-09T00:02:00;100660.16;;;16.28;71.58
69574;BME280;62840;52.366;5.980;2022-09-09T00:04:32;100657.31;;;16.30;71.95
69574;BME280;62840;52.366;5.980;2022-09-09T00:07:03;100659.81;;;16.31;72.12
69574;BME280;62840;52.366;5.980;2022-09-09T00:09:41;100663.19;;;16.33;71.76
69574;BME280;62840;52.366;5.980;2022-09-09T00:12:14;100666.53;;;16.35;71.67
69574;BME280;62840;52.366;5.980;2022-09-09T00:14:48;100665.34;;;16.38;71.79
69574;BME280;62840;52.366;5.980;2022-09-09T00:17:26;100667.91;;;16.39;72.16
69574;BME280;62840;52.366;5.980;2022-09-09T00:20:03;100667.91;;;16.39;71.98
69574;BME280;62840;52.366;5.980;2022-09-09T00:22:38;100659.66;;;16.41;72.17
69574;BME280;62840;52.366;5.980;2022-09-09T00:25:18;100656.78;;;16.42;71.77
69574;BME280;62840;52.366;5.980;2022-09-09T00:27:51;100655.09;;;16.41;71.99
69574;BME280;62840;52.366;5.980;2022-09-09T00:30:20;100663.19;;;16.41;72.14
69574;BME280;62840;52.366;5.980;2022-09-09T00:32:50;100655.94;;;16.42;71.91
69574;BME280;62840;52.366;5.980;2022-09-09T00:35:23;100666.72;;;16.42;72.08
69574;BME280;62840;52.366;5.980;2022-09-09T00:37:55;100668.56;;;16.41;71.74
69574;BME280;62840;52.366;5.980;2022-09-09T00:40:33;100662.34;;;16.41;71.92
69574;BME280;62840;52.366;5.980;2022-09-09T00:43:16;100657.13;;;16.39;72.12
69574;BME280;62840;52.366;5.980;2022-09-09T00:46:01;100656.44;;;16.37;72.37
69574;BME280;62840;52.366;5.980;2022-09-09T00:48:48;100655.78;;;16.35;72.17
69574;BME280;62840;52.366;5.980;2022-09-09T00:51:28;100656.13;;;16.32;72.09
69574;BME280;62840;52.366;5.980;2022-09-09T00:54:15;100652.75;;;16.30;72.09
69574;BME280;62840;52.366;5.980;2022-09-09T00:57:15;100649.06;;;16.31;72.18
69574;BME280;62840;52.366;5.980;2022-09-09T00:59:52;100647.38;;;16.30;72.06
69574;BME280;62840;52.366;5.980;2022-09-09T01:02:28;100644.00;;;16.28;72.30
69574;BME280;62840;52.366;5.980;2022-09-09T01:05:02;100644.38;;;16.25;72.08
69574;BME280;62840;52.366;5.980;2022-09-09T01:07:36;100639.31;;;16.22;72.53
69574;BME280;62840;52.366;5.980;2022-09-09T01:10:07;100643.00;;;16.21;72.37
69574;BME280;62840;52.366;5.980;2022-09-09T01:12:47;100645.03;;;16.19;72.46
69574;BME280;62840;52.366;5.980;2022-09-09T01:15:18;100649.75;;;16.17;72.26
69574;BME280;62840;52.366;5.980;2022-09-09T01:17:53;100654.09;;;16.18;72.20
69574;BME280;62840;52.366;5.980;2022-09-09T01:20:29;100648.72;;;16.18;72.83
69574;BME280;62840;52.366;5.980;2022-09-09T01:23:15;100643.34;;;16.18;72.65
69574;BME280;62840;52.366;5.980;2022-09-09T01:26:11;100643.34;;;16.18;72.72
69574;BME280;62840;52.366;5.980;2022-09-09T01:28:44;100638.28;;;16.15;72.76
69574;BME280;62840;52.366;5.980;2022-09-09T01:31:17;100637.47;;;16.14;72.76
69574;BME280;62840;52.366;5.980;2022-09-09T01:33:45;100643.69;;;16.15;72.52
69574;BME280;62840;52.366;5.980;2022-09-09T01:36:14;100645.38;;;16.16;72.72
69574;BME280;62840;52.366;5.980;2022-09-09T01:38:47;100646.03;;;16.18;72.65
69574;BME280;62840;52.366;5.980;2022-09-09T01:41:16;100645.03;;;16.19;72.60
69574;BME280;62840;52.366;5.980;2022-09-09T01:43:42;100653.78;;;16.21;72.86
69574;BME280;62840;52.366;5.980;2022-09-09T01:46:09;100648.56;;;16.19;73.01
69574;BME280;62840;52.366;5.980;2022-09-09T01:48:37;100652.06;;;16.20;73.05
69574;BME280;62840;52.366;5.980;2022-09-09T01:51:05;100649.22;;;16.21;72.75
69574;BME280;62840;52.366;5.980;2022-09-09T01:53:30;100648.41;;;16.21;73.02
69574;BME280;62840;52.366;5.980;2022-09-09T01:56:04;100649.38;;;16.20;72.58
69574;BME280;62840;52.366;5.980;2022-09-09T01:58:52;100652.06;;;16.20;72.64
69574;BME280;62840;52.366;5.980;2022-09-09T02:01:37;100648.41;;;16.21;72.59
69574;BME280;62840;52.366;5.980;2022-09-09T02:04:22;100648.72;;;16.18;72.75
69574;BME280;62840;52.366;5.980;2022-09-09T02:06:57;100641.00;;;16.15;72.87
69574;BME280;62840;52.366;5.980;2022-09-09T02:09:24;100641.16;;;16.13;72.70
69574;BME280;62840;52.366;5.980;2022-09-09T02:11:54;100643.00;;;16.13;72.89
69574;BME280;62840;52.366;5.980;2022-09-09T02:14:34;100641.50;;;16.10;72.96
69574;BME280;62840;52.366;5.980;2022-09-09T02:17:09;100639.81;;;16.09;72.88
69574;BME280;62840;52.366;5.980;2022-09-09T02:19:38;100637.28;;;16.08;72.71
69574;BME280;62840;52.366;5.980;2022-09-09T02:22:11;100642.69;;;16.08;72.69
69574;BME280;62840;52.366;5.980;2022-09-09T02:24:39;100640.97;;;16.06;72.96
69574;BME280;62840;52.366;5.980;2022-09-09T02:27:08;100643.03;;;16.04;72.64
69574;BME280;62840;52.366;5.980;2022-09-09T02:29:40;100641.31;;;16.03;72.67
69574;BME280;62840;52.366;5.980;2022-09-09T02:32:11;100633.59;;;16.00;72.83
69574;BME280;62840;52.366;5.980;2022-09-09T02:34:45;100628.38;;;15.99;72.92
69574;BME280;62840;52.366;5.980;2022-09-09T02:37:18;100632.25;;;15.96;72.68
69574;BME280;62840;52.366;5.980;2022-09-09T02:39:48;100629.91;;;15.93;72.49
69574;BME280;62840;52.366;5.980;2022-09-09T02:42:14;100634.59;;;15.91;72.48
69574;BME280;62840;52.366;5.980;2022-09-09T02:44:42;100626.84;;;15.88;72.67
69574;BME280;62840;52.366;5.980;2022-09-09T02:47:20;100632.56;;;15.85;72.69
69574;BME280;62840;52.366;5.980;2022-09-09T02:49:59;100632.91;;;15.82;72.56
69574;BME280;62840;52.366;5.980;2022-09-09T02:52:38;100628.69;;;15.79;72.80
69574;BME280;62840;52.366;5.980;2022-09-09T02:55:17;100628.16;;;15.76;72.59
69574;BME280;62840;52.366;5.980;2022-09-09T02:57:51;100614.38;;;15.71;72.64
69574;BME280;62840;52.366;5.980;2022-09-09T03:00:26;100619.75;;;15.71;72.70
69574;BME280;62840;52.366;5.980;2022-09-09T03:02:53;100625.44;;;15.68;72.93
69574;BME280;62840;52.366;5.980;2022-09-09T03:05:20;100635.53;;;15.65;72.44
69574;BME280;62840;52.366;5.980;2022-09-09T03:07:46;100633.19;;;15.62;72.67
69574;BME280;62840;52.366;5.980;2022-09-09T03:10:12;100625.13;;;15.62;72.75
69574;BME280;62840;52.366;5.980;2022-09-09T03:12:37;100623.59;;;15.60;72.46
69574;BME280;62840;52.366;5.980;2022-09-09T03:15:04;100627.47;;;15.57;72.69
69574;BME280;62840;52.366;5.980;2022-09-09T03:17:33;100620.53;;;15.55;72.80
69574;BME280;62840;52.366;5.980;2022-09-09T03:19:59;100619.72;;;15.54;72.82
69574;BME280;62840;52.366;5.980;2022-09-09T03:22:25;100624.94;;;15.56;72.64
69574;BME280;62840;52.366;5.980;2022-09-09T03:24:51;100619.72;;;15.54;72.74
69574;BME280;62840;52.366;5.980;2022-09-09T03:27:17;100620.06;;;15.51;72.31
69574;BME280;62840;52.366;5.980;2022-09-09T03:29:43;100629.44;;;15.47;72.75
69574;BME280;62840;52.366;5.980;2022-09-09T03:32:08;100631.47;;;15.45;72.73
69574;BME280;62840;52.366;5.980;2022-09-09T03:34:37;100630.78;;;15.43;72.75
69574;BME280;62840;52.366;5.980;2022-09-09T03:37:03;100630.78;;;15.43;72.81
69574;BME280;62840;52.366;5.980;2022-09-09T03:39:28;100628.44;;;15.40;72.55
69574;BME280;62840;52.366;5.980;2022-09-09T03:41:54;100633.81;;;15.40;72.94
69574;BME280;62840;52.366;5.980;2022-09-09T03:44:20;100635.81;;;15.38;72.68
69574;BME280;62840;52.366;5.980;2022-09-09T03:46:45;100638.66;;;15.36;72.93
69574;BME280;62840;52.366;5.980;2022-09-09T03:49:11;100639.81;;;15.34;72.87
69574;BME280;62840;52.366;5.980;2022-09-09T03:51:39;100627.41;;;15.33;72.83
69574;BME280;62840;52.366;5.980;2022-09-09T03:54:05;100634.78;;;15.31;72.71
69574;BME280;62840;52.366;5.980;2022-09-09T03:56:31;100643.16;;;15.28;72.82
69574;BME280;62840;52.366;5.980;2022-09-09T03:58:57;100631.72;;;15.26;72.64
69574;BME280;62840;52.366;5.980;2022-09-09T04:01:23;100639.44;;;15.20;72.62
69574;BME280;62840;52.366;5.980;2022-09-09T04:03:48;100636.06;;;15.18;72.70
69574;BME280;62840;52.366;5.980;2022-09-09T04:06:14;100638.75;;;15.18;72.61
69574;BME280;62840;52.366;5.980;2022-09-09T04:08:43;100630.00;;;15.16;72.48
69574;BME280;62840;52.366;5.980;2022-09-09T04:11:08;100631.03;;;15.15;72.52
69574;BME280;62840;52.366;5.980;2022-09-09T04:13:36;100636.25;;;15.17;72.98
69574;BME280;62840;52.366;5.980;2022-09-09T04:16:04;100629.31;;;15.14;72.79
69574;BME280;62840;52.366;5.980;2022-09-09T04:18:30;100636.56;;;15.14;72.93
69574;BME280;62840;52.366;5.980;2022-09-09T04:20:56;100630.34;;;15.13;72.79
69574;BME280;62840;52.366;5.980;2022-09-09T04:23:23;100626.00;;;15.12;72.78
69574;BME280;62840;52.366;5.980;2022-09-09T04:25:55;100624.13;;;15.13;73.01
69574;BME280;62840;52.366;5.980;2022-09-09T04:28:24;100625.13;;;15.12;73.14
69574;BME280;62840;52.366;5.980;2022-09-09T04:30:51;100618.91;;;15.11;73.07
69574;BME280;62840;52.366;5.980;2022-09-09T04:33:18;100624.28;;;15.11;72.90
69574;BME280;62840;52.366;5.980;2022-09-09T04:35:46;100618.91;;;15.11;72.84
69574;BME280;62840;52.366;5.980;2022-09-09T04:38:13;100616.38;;;15.10;73.05
69574;BME280;62840;52.366;5.980;2022-09-09T04:40:39;100622.63;;;15.10;73.23
69574;BME280;62840;52.366;5.980;2022-09-09T04:43:10;100619.06;;;15.10;72.91
69574;BME280;62840;52.366;5.980;2022-09-09T04:45:36;100615.56;;;15.09;73.10
69574;BME280;62840;52.366;5.980;2022-09-09T04:48:01;100616.56;;;15.08;72.80
69574;BME280;62840;52.366;5.980;2022-09-09T04:50:27;100616.72;;;15.07;72.82
69574;BME280;62840;52.366;5.980;2022-09-09T04:52:53;100626.47;;;15.08;72.89
69574;BME280;62840;52.366;5.980;2022-09-09T04:55:19;100622.94;;;15.07;73.03
69574;BME280;62840;52.366;5.980;2022-09-09T04:57:45;100628.31;;;15.07;73.14
69574;BME280;62840;52.366;5.980;2022-09-09T05:00:15;100629.16;;;15.08;72.96
69574;BME280;62840;52.366;5.980;2022-09-09T05:02:41;100618.41;;;15.08;73.03
69574;BME280;62840;52.366;5.980;2022-09-09T05:05:07;100623.78;;;15.08;73.18
69574;BME280;62840;52.366;5.980;2022-09-09T05:07:33;100628.31;;;15.07;73.18
69574;BME280;62840;52.366;5.980;2022-09-09T05:09:59;100623.59;;;15.09;72.89
69574;BME280;62840;52.366;5.980;2022-09-09T05:12:24;100618.25;;;15.09;73.02
69574;BME280;62840;52.366;5.980;2022-09-09T05:14:50;100619.25;;;15.08;73.08
69574;BME280;62840;52.366;5.980;2022-09-09T05:17:18;100618.41;;;15.08;73.04
69574;BME280;62840;52.366;5.980;2022-09-09T05:19:44;100615.88;;;15.06;73.30
69574;BME280;62840;52.366;5.980;2022-09-09T05:22:10;100617.56;;;15.07;73.26
69574;BME280;62840;52.366;5.980;2022-09-09T05:24:36;100609.50;;;15.07;73.29
69574;BME280;62840;52.366;5.980;2022-09-09T05:27:02;100609.69;;;15.06;73.07
69574;BME280;62840;52.366;5.980;2022-09-09T05:29:28;100602.59;;;15.05;73.22
69574;BME280;62840;52.366;5.980;2022-09-09T05:31:54;100607.97;;;15.05;73.38
69574;BME280;62840;52.366;5.980;2022-09-09T05:34:22;100607.16;;;15.04;73.41
69574;BME280;62840;52.366;5.980;2022-09-09T05:36:48;100607.31;;;15.02;73.38
69574;BME280;62840;52.366;5.980;2022-09-09T05:39:13;100605.44;;;15.03;73.37
69574;BME280;62840;52.366;5.980;2022-09-09T05:41:39;100603.78;;;15.02;73.61
69574;BME280;62840;52.366;5.980;2022-09-09T05:44:05;100610.16;;;15.01;73.22
69574;BME280;62840;52.366;5.980;2022-09-09T05:46:31;100610.81;;;15.03;73.25
69574;BME280;62840;52.366;5.980;2022-09-09T05:48:56;100603.78;;;15.02;73.28
69574;BME280;62840;52.366;5.980;2022-09-09T05:51:27;100622.44;;;15.03;73.41
69574;BME280;62840;52.366;5.980;2022-09-09T05:53:54;100621.25;;;15.06;73.21
69574;BME280;62840;52.366;5.980;2022-09-09T05:56:21;100620.91;;;15.09;73.20
69574;BME280;62840;52.366;5.980;2022-09-09T05:58:49;100622.94;;;15.07;73.40
69574;BME280;62840;52.366;5.980;2022-09-09T06:01:17;100619.25;;;15.08;73.45
69574;BME280;62840;52.366;5.980;2022-09-09T06:03:45;100620.91;;;15.09;73.35
69574;BME280;62840;52.366;5.980;2022-09-09T06:06:13;100620.91;;;15.09;73.18
69574;BME280;62840;52.366;5.980;2022-09-09T06:08:44;100624.63;;;15.08;73.54
69574;BME280;62840;52.366;5.980;2022-09-09T06:11:11;100619.25;;;15.08;73.47
69574;BME280;62840;52.366;5.980;2022-09-09T06:13:38;100618.56;;;15.06;73.25
69574;BME280;62840;52.366;5.980;2022-09-09T06:16:05;100615.88;;;15.06;73.38
69574;BME280;62840;52.366;5.980;2022-09-09T06:18:33;100617.75;;;15.06;73.16
69574;BME280;62840;52.366;5.980;2022-09-09T06:21:00;100620.41;;;15.06;73.57
69574;BME280;62840;52.366;5.980;2022-09-09T06:23:28;100614.19;;;15.05;73.38
69574;BME280;62840;52.366;5.980;2022-09-09T06:26:04;100612.38;;;15.06;73.58
69574;BME280;62840;52.366;5.980;2022-09-09T06:28:31;100615.88;;;15.06;73.60
69574;BME280;62840;52.366;5.980;2022-09-09T06:30:58;100618.41;;;15.08;73.77
69574;BME280;62840;52.366;5.980;2022-09-09T06:33:25;100620.63;;;15.12;73.54
69574;BME280;62840;52.366;5.980;2022-09-09T06:35:51;100623.97;;;15.14;73.76
69574;BME280;62840;52.366;5.980;2022-09-09T06:38:17;100624.63;;;15.16;73.88
69574;BME280;62840;52.366;5.980;2022-09-09T06:40:43;100616.28;;;15.19;73.77
69574;BME280;62840;52.366;5.980;2022-09-09T06:43:19;100610.56;;;15.22;73.67
69574;BME280;62840;52.366;5.980;2022-09-09T06:45:52;100615.59;;;15.26;73.83
69574;BME280;62840;52.366;5.980;2022-09-09T06:48:19;100621.50;;;15.29;74.09
69574;BME280;62840;52.366;5.980;2022-09-09T06:50:45;100617.50;;;15.33;74.06
69574;BME280;62840;52.366;5.980;2022-09-09T06:53:11;100617.97;;;15.37;73.95
69574;BME280;62840;52.366;5.980;2022-09-09T06:55:37;100624.72;;;15.41;73.98
69574;BME280;62840;52.366;5.980;2022-09-09T06:58:07;100626.06;;;15.45;73.77
69574;BME280;62840;52.366;5.980;2022-09-09T07:00:36;100620.88;;;15.52;74.09
69574;BME280;62840;52.366;5.980;2022-09-09T07:03:02;100620.41;;;15.56;74.19
69574;BME280;62840;52.366;5.980;2022-09-09T07:05:28;100624.44;;;15.60;74.24
69574;BME280;62840;52.366;5.980;2022-09-09T07:07:53;100622.91;;;15.66;74.20
69574;BME280;62840;52.366;5.980;2022-09-09T07:10:19;100620.59;;;15.71;73.89
69574;BME280;62840;52.366;5.980;2022-09-09T07:12:45;100618.41;;;15.75;74.37
69574;BME280;62840;52.366;5.980;2022-09-09T07:15:16;100616.38;;;15.77;74.26
69574;BME280;62840;52.366;5.980;2022-09-09T07:17:44;100623.16;;;15.81;74.20
69574;BME280;62840;52.366;5.980;2022-09-09T07:20:10;100623.47;;;15.86;74.28
69574;BME280;62840;52.366;5.980;2022-09-09T07:22:37;100613.09;;;15.91;74.20
69574;BME280;62840;52.366;5.980;2022-09-09T07:25:03;100620.47;;;15.97;74.39
69574;BME280;62840;52.366;5.980;2022-09-09T07:27:30;100625.19;;;16.03;74.41
69574;BME280;62840;52.366;5.980;2022-09-09T07:29:56;100619.13;;;16.10;74.51
69574;BME280;62840;52.366;5.980;2022-09-09T07:32:21;100620.50;;;16.14;74.28
69574;BME280;62840;52.366;5.980;2022-09-09T07:34:50;100618.97;;;16.19;74.46
69574;BME280;62840;52.366;5.980;2022-09-09T07:37:15;100622.84;;;16.25;74.23
69574;BME280;62840;52.366;5.980;2022-09-09T07:39:41;100619.63;;;16.30;74.11
69574;BME280;62840;52.366;5.980;2022-09-09T07:42:07;100612.03;;;16.33;73.95
69574;BME280;62840;52.366;5.980;2022-09-09T07:44:33;100616.25;;;16.36;73.92
69574;BME280;62840;52.366;5.980;2022-09-09T07:46:59;100616.91;;;16.38;74.18
69574;BME280;62840;52.366;5.980;2022-09-09T07:49:25;100617.44;;;16.41;73.94
69574;BME280;62840;52.366;5.980;2022-09-09T07:51:53;100617.06;;;16.44;74.61
69574;BME280;62840;52.366;5.980;2022-09-09T07:54:20;100625.81;;;16.46;73.94
69574;BME280;62840;52.366;5.980;2022-09-09T07:56:46;100620.13;;;16.50;74.19
69574;BME280;62840;52.366;5.980;2022-09-09T07:59:13;100625.16;;;16.53;74.14
69574;BME280;62840;52.366;5.980;2022-09-09T08:01:40;100628.16;;;16.58;74.20
69574;BME280;62840;52.366;5.980;2022-09-09T08:04:10;100620.75;;;16.60;74.27
69574;BME280;62840;52.366;5.980;2022-09-09T08:06:39;100620.41;;;16.63;74.29
69574;BME280;62840;52.366;5.980;2022-09-09T08:09:09;100630.84;;;16.66;73.94
69574;BME280;62840;52.366;5.980;2022-09-09T08:11:36;100630.50;;;16.69;74.03
69574;BME280;62840;52.366;5.980;2022-09-09T08:14:03;100630.16;;;16.72;74.16
69574;BME280;62840;52.366;5.980;2022-09-09T08:16:31;100633.50;;;16.74;74.05
69574;BME280;62840;52.366;5.980;2022-09-09T08:18:59;100636.84;;;16.76;74.25
69574;BME280;62840;52.366;5.980;2022-09-09T08:21:26;100637.53;;;16.78;74.37
69574;BME280;62840;52.366;5.980;2022-09-09T08:23:56;100639.03;;;16.81;74.28
69574;BME280;62840;52.366;5.980;2022-09-09T08:26:26;100643.28;;;16.83;74.35
69574;BME280;62840;52.366;5.980;2022-09-09T08:28:55;100640.41;;;16.85;73.97
69574;BME280;62840;52.366;5.980;2022-09-09T08:31:25;100644.59;;;16.87;73.89
69574;BME280;62840;52.366;5.980;2022-09-09T08:33:52;100647.97;;;16.89;74.03
69574;BME280;62840;52.366;5.980;2022-09-09T08:36:20;100638.88;;;16.91;73.70
69574;BME280;62840;52.366;5.980;2022-09-09T08:38:47;100639.88;;;16.89;73.81
69574;BME280;62840;52.366;5.980;2022-09-09T08:41:35;100646.31;;;16.88;73.87
69574;BME280;62840;52.366;5.980;2022-09-09T08:44:14;100656.72;;;16.92;73.64
69574;BME280;62840;52.366;5.980;2022-09-09T08:46:57;100651.31;;;16.92;73.84
69574;BME280;62840;52.366;5.980;2022-09-09T08:49:46;100645.94;;;16.92;73.84
69574;BME280;62840;52.366;5.980;2022-09-09T08:52:29;100645.63;;;16.95;73.72
69574;BME280;62840;52.366;5.980;2022-09-09T08:55:05;100642.56;;;16.98;73.63
69574;BME280;62840;52.366;5.980;2022-09-09T08:57:48;100651.97;;;17.02;73.92
69574;BME280;62840;52.366;5.980;2022-09-09T09:00:17;100649.97;;;17.04;73.77
69574;BME280;62840;52.366;5.980;2022-09-09T09:02:47;100653.31;;;17.06;73.67
69574;BME280;62840;52.366;5.980;2022-09-09T09:05:31;100651.25;;;17.08;73.35
69574;BME280;62840;52.366;5.980;2022-09-09T09:08:10;100649.25;;;17.10;73.52
69574;BME280;62840;52.366;5.980;2022-09-09T09:10:47;100662.53;;;17.12;73.44
69574;BME280;62840;52.366;5.980;2022-09-09T09:13:19;100657.16;;;17.12;73.46
69574;BME280;62840;52.366;5.980;2022-09-09T09:15:54;100662.53;;;17.12;73.87
69574;BME280;62840;52.366;5.980;2022-09-09T09:18:27;100662.53;;;17.12;73.64
69574;BME280;62840;52.366;5.980;2022-09-09T09:21:00;100670.47;;;17.13;73.48
69574;BME280;62840;52.366;5.980;2022-09-09T09:23:40;100675.84;;;17.13;73.65
69574;BME280;62840;52.366;5.980;2022-09-09T09:26:10;100672.13;;;17.14;73.55
69574;BME280;62840;52.366;5.980;2022-09-09T09:28:39;100667.56;;;17.15;73.73
69574;BME280;62840;52.366;5.980;2022-09-09T09:31:08;100673.84;;;17.15;73.51
69574;BME280;62840;52.366;5.980;2022-09-09T09:33:39;100677.19;;;17.17;73.67
69574;BME280;62840;52.366;5.980;2022-09-09T09:36:14;100666.41;;;17.17;73.79
69574;BME280;62840;52.366;5.980;2022-09-09T09:38:52;100667.06;;;17.19;73.38
69574;BME280;62840;52.366;5.980;2022-09-09T09:41:29;100671.44;;;17.20;73.88
69574;BME280;62840;52.366;5.980;2022-09-09T09:43:59;100671.09;;;17.23;73.47
69574;BME280;62840;52.366;5.980;2022-09-09T09:46:24;100667.41;;;17.24;73.23
69574;BME280;62840;52.366;5.980;2022-09-09T09:48:56;100674.66;;;17.24;73.21
69574;BME280;62840;52.366;5.980;2022-09-09T09:51:22;100661.34;;;17.22;73.57
69574;BME280;62840;52.366;5.980;2022-09-09T09:53:50;100671.94;;;17.24;73.49
69574;BME280;62840;52.366;5.980;2022-09-09T09:56:16;100664.69;;;17.24;73.57
69574;BME280;62840;52.366;5.980;2022-09-09T09:58:51;100671.75;;;17.25;73.09
69574;BME280;62840;52.366;5.980;2022-09-09T10:01:24;100675.28;;;17.26;73.15
69574;BME280;62840;52.366;5.980;2022-09-09T10:03:52;100673.78;;;17.23;73.20
69574;BME280;62840;52.366;5.980;2022-09-09T10:06:30;100671.94;;;17.24;73.11
69574;BME280;62840;52.366;5.980;2022-09-09T10:08:57;100681.88;;;17.23;73.18
69574;BME280;62840;52.366;5.980;2022-09-09T10:11:32;100681.53;;;17.26;73.07
69574;BME280;62840;52.366;5.980;2022-09-09T10:14:19;100679.84;;;17.25;72.63
69574;BME280;62840;52.366;5.980;2022-09-09T10:16:59;100681.34;;;17.28;72.87
69574;BME280;62840;52.366;5.980;2022-09-09T10:19:37;100682.19;;;17.28;73.06
69574;BME280;62840;52.366;5.980;2022-09-09T10:22:28;100679.16;;;17.31;72.92
69574;BME280;62840;52.366;5.980;2022-09-09T10:25:14;100672.72;;;17.33;72.93
69574;BME280;62840;52.366;5.980;2022-09-09T10:28:00;100672.72;;;17.33;72.87
69574;BME280;62840;52.366;5.980;2022-09-09T10:31:04;100673.41;;;17.35;72.65
69574;BME280;62840;52.366;5.980;2022-09-09T10:33:50;100678.63;;;17.36;72.36
69574;BME280;62840;52.366;5.980;2022-09-09T10:36:23;100671.88;;;17.40;72.39
69574;BME280;62840;52.366;5.980;2022-09-09T10:38:57;100674.03;;;17.45;72.13
69574;BME280;62840;52.366;5.980;2022-09-09T10:41:42;100665.41;;;17.49;72.24
69574;BME280;62840;52.366;5.980;2022-09-09T10:44:28;100668.78;;;17.51;72.29
69574;BME280;62840;52.366;5.980;2022-09-09T10:47:28;100658.13;;;17.58;71.91
69574;BME280;62840;52.366;5.980;2022-09-09T10:50:18;100651.38;;;17.62;71.48
69574;BME280;62840;52.366;5.980;2022-09-09T10:53:02;100647.09;;;17.68;71.45
69574;BME280;62840;52.366;5.980;2022-09-09T10:55:42;100645.56;;;17.73;71.54
69574;BME280;62840;52.366;5.980;2022-09-09T10:58:14;100655.97;;;17.77;71.31
69574;BME280;62840;52.366;5.980;2022-09-09T11:00:49;100651.94;;;17.81;71.52
69574;BME280;62840;52.366;5.980;2022-09-09T11:03:20;100645.72;;;17.80;71.06
69574;BME280;62840;52.366;5.980;2022-09-09T11:05:55;100657.34;;;17.81;70.85
69574;BME280;62840;52.366;5.980;2022-09-09T11:08:26;100653.63;;;17.82;71.21
69574;BME280;62840;52.366;5.980;2022-09-09T11:10:59;100653.44;;;17.83;71.15
69574;BME280;62840;52.366;5.980;2022-09-09T11:13:32;100661.53;;;17.83;70.76
69574;BME280;62840;52.366;5.980;2022-09-09T11:16:15;100652.78;;;17.81;70.65
69574;BME280;62840;52.366;5.980;2022-09-09T11:18:48;100656.50;;;17.80;70.43
69574;BME280;62840;52.366;5.980;2022-09-09T11:21:23;100655.66;;;17.80;70.76
69574;BME280;62840;52.366;5.980;2022-09-09T11:23:57;100655.66;;;17.80;70.42
69574;BME280;62840;52.366;5.980;2022-09-09T11:26:31;100652.28;;;17.78;70.77
69574;BME280;62840;52.366;5.980;2022-09-09T11:29:16;100651.63;;;17.76;70.69
69574;BME280;62840;52.366;5.980;2022-09-09T11:32:06;100654.31;;;17.76;71.09
69574;BME280;62840;52.366;5.980;2022-09-09T11:34:54;100655.97;;;17.77;70.75
69574;BME280;62840;52.366;5.980;2022-09-09T11:37:58;100655.97;;;17.77;70.96
69574;BME280;62840;52.366;5.980;2022-09-09T11:40:42;100654.31;;;17.76;70.45
69574;BME280;62840;52.366;5.980;2022-09-09T11:43:11;100655.66;;;17.80;70.29
69574;BME280;62840;52.366;5.980;2022-09-09T11:45:40;100663.41;;;17.83;70.39
69574;BME280;62840;52.366;5.980;2022-09-09T11:48:22;100660.69;;;17.83;69.82
69574;BME280;62840;52.366;5.980;2022-09-09T11:50:58;100664.41;;;17.82;70.57
69574;BME280;62840;52.366;5.980;2022-09-09T11:53:28;100671.84;;;17.80;70.04
69574;BME280;62840;52.366;5.980;2022-09-09T11:56:03;100672.16;;;17.77;70.45
69574;BME280;62840;52.366;5.980;2022-09-09T11:58:39;100664.25;;;17.75;70.91
69574;BME280;62840;52.366;5.980;2022-09-09T12:01:27;100659.72;;;17.76;71.15
69574;BME280;62840;52.366;5.980;2022-09-09T12:06:59;100654.31;;;17.76;71.82
69574;BME280;62840;52.366;5.980;2022-09-09T12:12:25;100666.78;;;17.77;71.40
69574;BME280;62840;52.366;5.980;2022-09-09T12:15:00;100660.53;;;17.76;71.63
69574;BME280;62840;52.366;5.980;2022-09-09T12:17:43;100658.00;;;17.75;71.82
69574;BME280;62840;52.366;5.980;2022-09-09T12:20:14;100661.75;;;17.73;72.26
69574;BME280;62840;52.366;5.980;2022-09-09T12:26:06;100657.81;;;17.84;72.81
69574;BME280;62840;52.366;5.980;2022-09-09T12:29:01;100654.22;;;17.92;72.73
69574;BME280;62840;52.366;5.980;2022-09-09T12:31:39;100660.56;;;17.99;72.41
69574;BME280;62840;52.366;5.980;2022-09-09T12:34:15;100646.38;;;18.05;72.91
69574;BME280;62840;52.366;5.980;2022-09-09T12:36:48;100653.38;;;18.14;72.63
69574;BME280;62840;52.366;5.980;2022-09-09T12:39:29;100647.59;;;18.18;72.83
69574;BME280;62840;52.366;5.980;2022-09-09T12:42:00;100647.97;;;18.14;72.81
69574;BME280;62840;52.366;5.980;2022-09-09T12:44:28;100637.19;;;18.14;72.61
69574;BME280;62840;52.366;5.980;2022-09-09T12:46:55;100644.63;;;18.12;72.17
69574;BME280;62840;52.366;5.980;2022-09-09T12:49:29;100641.94;;;18.12;72.69
69574;BME280;62840;52.366;5.980;2022-09-09T12:51:57;100638.75;;;18.09;72.47
69574;BME280;62840;52.366;5.980;2022-09-09T12:54:23;100637.91;;;18.08;72.93
69574;BME280;62840;52.366;5.980;2022-09-09T12:56:49;100639.59;;;18.09;72.77
69574;BME280;62840;52.366;5.980;2022-09-09T12:59:22;100628.81;;;18.09;72.11
69574;BME280;62840;52.366;5.980;2022-09-09T13:01:58;100638.41;;;18.12;72.10
69574;BME280;62840;52.366;5.980;2022-09-09T13:04:24;100632.13;;;18.11;72.37
69574;BME280;62840;52.366;5.980;2022-09-09T13:06:50;100628.44;;;18.12;71.83
69574;BME280;62840;52.366;5.980;2022-09-09T13:09:16;100627.88;;;18.17;71.83
69574;BME280;62840;52.366;5.980;2022-09-09T13:11:43;100631.06;;;18.21;72.04
69574;BME280;62840;52.366;5.980;2022-09-09T13:14:17;100627.34;;;18.22;71.76
69574;BME280;62840;52.366;5.980;2022-09-09T13:16:58;100623.44;;;18.24;71.88
69574;BME280;62840;52.366;5.980;2022-09-09T13:19:25;100614.97;;;18.27;72.07
69574;BME280;62840;52.366;5.980;2022-09-09T13:21:55;100622.53;;;18.32;71.44
69574;BME280;62840;52.366;5.980;2022-09-09T13:24:27;100629.59;;;18.33;71.60